createdAt,value
2023-04-22T00:00:09.372Z,6.09
2023-04-22T00:02:58.945Z,6.12
2023-04-22T00:05:26.831Z,6.14
2023-04-22T00:07:54.572Z,6.17
2023-04-22T00:10:22.262Z,6.19
2023-04-22T00:12:49.885Z,6.18
2023-04-22T00:15:21.576Z,6.15
2023-04-22T00:17:49.325Z,6.13
2023-04-22T00:20:17.782Z,6.10
2023-04-22T00:22:45.382Z,6.05
2023-04-22T00:25:13.003Z,5.99
2023-04-22T00:27:40.651Z,5.92
2023-04-22T00:30:09.577Z,5.87
2023-04-22T00:32:38.134Z,5.81
2023-04-22T00:35:06.470Z,5.74
2023-04-22T00:37:34.159Z,5.68
2023-04-22T00:40:01.909Z,5.63
2023-04-22T00:42:29.626Z,5.58
2023-04-22T00:44:57.278Z,5.52
2023-04-22T00:47:26.935Z,5.47
2023-04-22T00:49:55.177Z,5.41
2023-04-22T00:52:22.780Z,5.36
2023-04-22T00:54:51.447Z,5.32
2023-04-22T00:57:19.511Z,5.32
2023-04-22T00:59:47.188Z,5.34
2023-04-22T01:02:14.890Z,5.37
2023-04-22T01:04:42.715Z,5.38
2023-04-22T01:07:10.314Z,5.37
2023-04-22T01:09:40.146Z,5.35
2023-04-22T01:12:07.923Z,5.31
2023-04-22T01:14:35.565Z,5.28
2023-04-22T01:17:03.382Z,5.22
2023-04-22T01:19:31.133Z,5.17
2023-04-22T01:21:59.391Z,5.11
2023-04-22T01:24:27.561Z,5.05
2023-04-22T01:26:55.738Z,5.00
2023-04-22T01:29:23.517Z,4.94
2023-04-22T01:31:51.188Z,4.90
2023-04-22T01:34:18.847Z,4.85
2023-04-22T01:36:46.487Z,4.79
2023-04-22T01:39:14.200Z,4.74
2023-04-22T01:41:42.113Z,4.72
2023-04-22T01:44:09.732Z,4.73
2023-04-22T01:46:37.631Z,4.77
2023-04-22T01:49:05.528Z,4.79
2023-04-22T01:51:33.137Z,4.80
2023-04-22T01:54:00.861Z,4.79
2023-04-22T01:56:28.455Z,4.77
2023-04-22T01:58:56.055Z,4.74
2023-04-22T02:01:23.720Z,4.71
2023-04-22T02:03:51.507Z,4.67
2023-04-22T02:06:19.266Z,4.62
2023-04-22T02:08:46.866Z,4.58
2023-04-22T02:11:14.502Z,4.53
2023-04-22T02:13:42.207Z,4.47
2023-04-22T02:16:10.199Z,4.40
2023-04-22T02:18:37.918Z,4.35
2023-04-22T02:21:05.600Z,4.30
2023-04-22T02:23:33.219Z,4.27
2023-04-22T02:26:01.608Z,4.28
2023-04-22T02:28:29.211Z,4.32
2023-04-22T02:30:56.984Z,4.35
2023-04-22T02:33:24.868Z,4.35
2023-04-22T02:35:52.465Z,4.34
2023-04-22T02:38:20.213Z,4.31
2023-04-22T02:40:47.850Z,4.28
2023-04-22T02:43:15.613Z,4.24
2023-04-22T02:45:43.306Z,4.20
2023-04-22T02:48:10.900Z,4.15
2023-04-22T02:50:38.564Z,4.11
2023-04-22T02:53:06.379Z,4.07
2023-04-22T02:55:34.015Z,4.02
2023-04-22T02:58:01.592Z,3.98
2023-04-22T03:00:29.468Z,3.93
2023-04-22T03:02:57.366Z,3.91
2023-04-22T03:05:25.132Z,3.92
2023-04-22T03:07:53.261Z,3.96
2023-04-22T03:10:20.992Z,3.98
2023-04-22T03:12:49.125Z,3.98
2023-04-22T03:15:19.577Z,3.97
2023-04-22T03:17:49.311Z,3.95
2023-04-22T03:20:17.118Z,3.92
2023-04-22T03:22:44.730Z,3.89
2023-04-22T03:25:12.608Z,3.87
2023-04-22T03:27:40.943Z,3.85
2023-04-22T03:30:09.039Z,3.81
2023-04-22T03:32:36.687Z,3.77
2023-04-22T03:35:04.928Z,3.72
2023-04-22T03:37:32.587Z,3.66
2023-04-22T03:40:00.218Z,3.64
2023-04-22T03:42:27.832Z,3.64
2023-04-22T03:44:55.441Z,3.67
2023-04-22T03:47:23.294Z,3.69
2023-04-22T03:49:50.960Z,3.68
2023-04-22T03:52:18.568Z,3.68
2023-04-22T03:54:46.157Z,3.66
2023-04-22T03:57:13.791Z,3.63
2023-04-22T03:59:41.829Z,3.61
2023-04-22T04:02:09.820Z,3.59
2023-04-22T04:04:38.199Z,3.57
2023-04-22T04:07:07.279Z,3.54
2023-04-22T04:09:34.930Z,3.52
2023-04-22T04:12:03.391Z,3.49
2023-04-22T04:14:31.024Z,3.47
2023-04-22T04:16:58.704Z,3.48
2023-04-22T04:19:26.387Z,3.53
2023-04-22T04:21:54.305Z,3.59
2023-04-22T04:24:21.951Z,3.65
2023-04-22T04:26:49.617Z,3.71
2023-04-22T04:29:20.874Z,3.75
2023-04-22T04:31:48.659Z,3.79
2023-04-22T04:34:16.460Z,3.82
2023-04-22T04:36:46.513Z,3.84
2023-04-22T04:39:17.364Z,3.86
2023-04-22T04:41:45.321Z,3.87
2023-04-22T04:44:12.934Z,3.87
2023-04-22T04:46:40.678Z,3.88
2023-04-22T04:49:12.960Z,3.91
2023-04-22T04:51:40.874Z,4.00
2023-04-22T04:54:08.478Z,4.11
2023-04-22T04:56:36.341Z,4.22
2023-04-22T04:59:03.937Z,4.33
2023-04-22T05:01:31.595Z,4.42
2023-04-22T05:03:59.409Z,4.52
2023-04-22T05:06:27.215Z,4.60
2023-04-22T05:08:54.883Z,4.67
2023-04-22T05:11:22.827Z,4.75
2023-04-22T05:13:50.453Z,4.82
2023-04-22T05:16:18.220Z,4.89
2023-04-22T05:18:45.939Z,4.95
2023-04-22T05:21:13.570Z,5.05
2023-04-22T05:23:41.156Z,5.19
2023-04-22T05:26:08.728Z,5.36
2023-04-22T05:28:36.327Z,5.53
2023-04-22T05:31:04.006Z,5.69
2023-04-22T05:33:31.703Z,5.84
2023-04-22T05:35:59.331Z,5.99
2023-04-22T05:38:26.973Z,6.14
2023-04-22T05:40:54.701Z,6.26
2023-04-22T05:43:22.553Z,6.40
2023-04-22T05:45:50.388Z,6.53
2023-04-22T05:48:18.385Z,6.65
2023-04-22T05:50:46.265Z,6.78
2023-04-22T05:53:13.972Z,6.90
2023-04-22T05:55:41.888Z,7.03
2023-04-22T05:58:09.584Z,7.17
2023-04-22T06:00:37.171Z,7.34
2023-04-22T06:03:04.973Z,7.54
2023-04-22T06:05:33.020Z,7.74
2023-04-22T06:08:00.667Z,7.93
2023-04-22T06:10:28.384Z,8.11
2023-04-22T06:12:56.217Z,8.28
2023-04-22T06:15:23.819Z,8.46
2023-04-22T06:17:51.441Z,8.63
2023-04-22T06:20:19.371Z,8.80
2023-04-22T06:22:46.989Z,8.94
2023-04-22T06:25:14.574Z,9.08
2023-04-22T06:27:42.206Z,9.20
2023-04-22T06:30:11.575Z,9.32
2023-04-22T06:32:39.238Z,9.45
2023-04-22T06:35:07.623Z,9.56
2023-04-22T06:37:35.498Z,9.67
2023-04-22T06:40:03.290Z,9.79
2023-04-22T06:42:31.008Z,9.90
2023-04-22T06:44:58.654Z,10.05
2023-04-22T06:47:26.280Z,10.17
2023-04-22T06:49:53.887Z,10.29
2023-04-22T06:52:23.480Z,10.40
2023-04-22T06:54:51.893Z,10.52
2023-04-22T06:57:19.490Z,10.64
2023-04-22T06:59:47.279Z,10.76
2023-04-22T07:02:15.201Z,10.87
2023-04-22T07:04:43.050Z,10.97
2023-04-22T07:07:10.736Z,11.10
2023-04-22T07:09:39.467Z,11.20
2023-04-22T07:12:07.353Z,11.31
2023-04-22T07:14:35.176Z,11.41
2023-04-22T07:17:02.808Z,11.51
2023-04-22T07:19:31.169Z,11.63
2023-04-22T07:22:00.214Z,11.73
2023-04-22T07:24:27.842Z,11.83
2023-04-22T07:26:55.492Z,11.92
2023-04-22T07:29:23.478Z,12.01
2023-04-22T07:31:51.087Z,12.11
2023-04-22T07:34:18.810Z,12.23
2023-04-22T07:36:46.424Z,12.32
2023-04-22T07:39:14.132Z,12.42
2023-04-22T07:41:41.749Z,12.51
2023-04-22T07:44:10.680Z,12.60
2023-04-22T07:46:38.277Z,12.70
2023-04-22T07:49:06.193Z,12.80
2023-04-22T07:51:33.831Z,12.93
2023-04-22T07:54:01.463Z,13.02
2023-04-22T07:56:29.036Z,13.11
2023-04-22T07:58:56.672Z,13.23
2023-04-22T08:01:24.325Z,13.35
2023-04-22T08:03:52.325Z,13.48
2023-04-22T08:06:20.272Z,13.62
2023-04-22T08:08:48.035Z,13.74
2023-04-22T08:11:15.851Z,13.88
2023-04-22T08:13:43.760Z,14.02
2023-04-22T08:16:11.474Z,14.13
2023-04-22T08:18:39.292Z,14.27
2023-04-22T08:21:06.945Z,14.39
2023-04-22T08:23:34.647Z,14.48
2023-04-22T08:26:02.863Z,14.58
2023-04-22T08:28:30.657Z,14.69
2023-04-22T08:30:58.366Z,14.81
2023-04-22T08:33:27.413Z,14.90
2023-04-22T08:35:55.253Z,14.97
2023-04-22T08:38:23.014Z,15.08
2023-04-22T08:40:50.761Z,15.17
2023-04-22T08:43:18.404Z,15.24
2023-04-22T08:45:46.135Z,15.32
2023-04-22T08:48:13.820Z,15.41
2023-04-22T08:50:41.493Z,15.54
2023-04-22T08:53:09.097Z,15.65
2023-04-22T08:55:36.692Z,15.73
2023-04-22T08:58:06.242Z,15.79
2023-04-22T09:00:34.701Z,15.90
2023-04-22T09:03:03.235Z,15.99
2023-04-22T09:05:33.962Z,16.12
2023-04-22T09:08:02.368Z,16.22
2023-04-22T09:10:31.874Z,16.31
2023-04-22T09:13:01.198Z,16.37
2023-04-22T09:15:29.342Z,16.42
2023-04-22T09:17:58.631Z,16.48
2023-04-22T09:20:27.635Z,16.57
2023-04-22T09:22:56.473Z,16.65
2023-04-22T09:25:26.011Z,16.71
2023-04-22T09:27:55.367Z,16.80
2023-04-22T09:30:24.844Z,16.93
2023-04-22T09:32:54.800Z,17.02
2023-04-22T09:35:32.670Z,17.10
2023-04-22T09:38:01.474Z,17.18
2023-04-22T09:40:30.211Z,17.23
2023-04-22T09:43:03.807Z,17.33
2023-04-22T09:45:42.113Z,17.41
2023-04-22T09:48:10.618Z,17.47
2023-04-22T09:50:39.469Z,17.55
2023-04-22T09:53:09.832Z,17.66
2023-04-22T09:55:39.637Z,17.74
2023-04-22T09:58:16.534Z,17.81
2023-04-22T10:00:52.685Z,17.90
2023-04-22T10:03:20.445Z,17.97
2023-04-22T10:05:48.138Z,18.08
2023-04-22T10:08:16.205Z,18.30
2023-04-22T10:10:44.264Z,18.70
2023-04-22T10:13:11.910Z,19.13
2023-04-22T10:15:41.421Z,19.55
2023-04-22T10:18:11.082Z,19.93
2023-04-22T10:20:40.400Z,20.26
2023-04-22T10:23:16.148Z,20.55
2023-04-22T10:25:43.859Z,20.84
2023-04-22T10:28:11.687Z,21.16
2023-04-22T10:30:39.667Z,21.47
2023-04-22T10:33:29.058Z,21.76
2023-04-22T10:36:10.026Z,22.08
2023-04-22T10:38:42.561Z,22.26
2023-04-22T10:41:15.395Z,22.42
2023-04-22T10:43:47.009Z,22.55
2023-04-22T10:46:33.217Z,22.68
2023-04-22T10:49:07.971Z,22.89
2023-04-22T10:51:42.872Z,23.05
2023-04-22T10:54:32.023Z,23.21
2023-04-22T10:57:06.209Z,23.23
2023-04-22T10:59:35.763Z,23.30
2023-04-22T11:02:06.735Z,23.42
2023-04-22T11:04:34.878Z,23.55
2023-04-22T11:07:17.324Z,23.70
2023-04-22T11:09:45.736Z,23.86
2023-04-22T11:12:38.533Z,24.00
2023-04-22T11:15:09.906Z,24.12
2023-04-22T11:17:38.033Z,24.22
2023-04-22T11:20:07.149Z,24.34
2023-04-22T11:22:38.450Z,24.49
2023-04-22T11:25:06.609Z,24.65
2023-04-22T11:27:34.396Z,24.71
2023-04-22T11:30:15.545Z,24.72
2023-04-22T11:32:44.894Z,24.81
2023-04-22T11:35:18.034Z,24.87
2023-04-22T11:37:48.733Z,24.95
2023-04-22T11:40:45.100Z,25.04
2023-04-22T11:43:14.402Z,25.13
2023-04-22T11:45:42.442Z,25.17
2023-04-22T11:48:11.398Z,25.24
2023-04-22T11:50:40.348Z,25.32
2023-04-22T11:53:18.603Z,25.41
2023-04-22T11:55:46.833Z,25.50
2023-04-22T11:58:28.171Z,25.63
2023-04-22T12:00:57.645Z,25.83
2023-04-22T12:03:26.967Z,26.00
2023-04-22T12:05:55.616Z,26.18
2023-04-22T12:08:33.284Z,26.35
2023-04-22T12:11:06.000Z,26.50
2023-04-22T12:13:36.702Z,26.63
2023-04-22T12:16:14.687Z,26.71
2023-04-22T12:18:51.584Z,26.72
2023-04-22T12:21:23.834Z,26.81
2023-04-22T12:23:56.088Z,26.94
2023-04-22T12:26:27.733Z,26.96
2023-04-22T12:28:56.215Z,27.07
2023-04-22T12:31:24.085Z,27.19
2023-04-22T12:33:51.920Z,27.33
2023-04-22T12:36:23.352Z,27.51
2023-04-22T12:38:51.446Z,27.74
2023-04-22T12:41:19.171Z,27.94
2023-04-22T12:43:46.888Z,28.08
2023-04-22T12:46:14.598Z,28.21
2023-04-22T12:48:42.916Z,28.23
2023-04-22T12:51:10.796Z,28.19
2023-04-22T12:53:38.500Z,28.19
2023-04-22T12:56:06.206Z,28.31
2023-04-22T12:58:33.813Z,28.48
2023-04-22T13:01:01.433Z,28.65
2023-04-22T13:03:29.273Z,28.68
2023-04-22T13:05:57.060Z,28.72
2023-04-22T13:08:24.757Z,28.79
2023-04-22T13:10:52.790Z,28.73
2023-04-22T13:13:20.407Z,28.70
2023-04-22T13:15:53.617Z,28.69
2023-04-22T13:18:23.049Z,28.79
2023-04-22T13:20:51.462Z,28.96
2023-04-22T13:23:21.663Z,29.15
2023-04-22T13:25:50.168Z,29.30
2023-04-22T13:28:17.857Z,29.33
2023-04-22T13:30:45.717Z,29.28
2023-04-22T13:33:13.622Z,29.30
2023-04-22T13:35:41.346Z,29.36
2023-04-22T13:38:08.997Z,29.45
2023-04-22T13:40:36.608Z,29.49
2023-04-22T13:43:04.459Z,29.51
2023-04-22T13:45:32.230Z,29.42
2023-04-22T13:47:59.900Z,29.41
2023-04-22T13:50:27.538Z,29.42
2023-04-22T13:52:55.171Z,29.51
2023-04-22T13:55:22.856Z,29.64
2023-04-22T13:57:51.571Z,29.76
2023-04-22T14:00:20.843Z,29.80
2023-04-22T14:02:49.060Z,29.80
2023-04-22T14:05:17.048Z,29.82
2023-04-22T14:07:44.646Z,29.91
2023-04-22T14:10:13.813Z,30.01
2023-04-22T14:12:41.517Z,30.10
2023-04-22T14:15:11.228Z,30.20
2023-04-22T14:17:40.088Z,30.26
2023-04-22T14:20:08.981Z,30.27
2023-04-22T14:22:36.915Z,30.11
2023-04-22T14:25:05.058Z,30.06
2023-04-22T14:27:33.020Z,30.00
2023-04-22T14:30:01.454Z,29.81
2023-04-22T14:32:29.466Z,29.55
2023-04-22T14:34:57.167Z,29.48
2023-04-22T14:37:24.832Z,29.46
2023-04-22T14:39:52.419Z,29.53
2023-04-22T14:42:20.567Z,29.57
2023-04-22T14:44:48.209Z,29.45
2023-04-22T14:47:15.886Z,29.43
2023-04-22T14:49:43.600Z,29.51
2023-04-22T14:52:11.404Z,29.62
2023-04-22T14:54:39.006Z,29.72
2023-04-22T14:57:06.648Z,29.58
2023-04-22T14:59:34.323Z,29.50
2023-04-22T15:02:02.105Z,29.41
2023-04-22T15:04:30.026Z,29.41
2023-04-22T15:06:57.793Z,29.50
2023-04-22T15:09:25.734Z,29.60
2023-04-22T15:11:55.425Z,29.70
2023-04-22T15:14:23.285Z,29.77
2023-04-22T15:16:50.894Z,29.74
2023-04-22T15:19:18.512Z,29.72
2023-04-22T15:21:46.824Z,29.61
2023-04-22T15:24:14.464Z,29.44
2023-04-22T15:26:42.285Z,29.33
2023-04-22T15:29:10.017Z,29.24
2023-04-22T15:31:37.713Z,29.05
2023-04-22T15:34:05.963Z,28.91
2023-04-22T15:36:33.577Z,28.92
2023-04-22T15:39:01.244Z,29.00
2023-04-22T15:41:29.168Z,29.07
2023-04-22T15:43:56.757Z,29.08
2023-04-22T15:46:24.390Z,29.01
2023-04-22T15:48:52.023Z,28.96
2023-04-22T15:51:19.651Z,28.80
2023-04-22T15:53:47.302Z,28.56
2023-04-22T15:56:15.404Z,28.45
2023-04-22T15:58:43.117Z,28.41
2023-04-22T16:01:18.784Z,28.40
2023-04-22T16:03:48.387Z,28.26
2023-04-22T16:06:17.733Z,28.11
2023-04-22T16:08:45.670Z,27.99
2023-04-22T16:11:14.078Z,27.84
2023-04-22T16:13:42.448Z,27.72
2023-04-22T16:16:10.220Z,27.63
2023-04-22T16:18:38.001Z,27.48
2023-04-22T16:21:06.786Z,27.35
2023-04-22T16:23:34.850Z,27.26
2023-04-22T16:26:04.512Z,27.16
2023-04-22T16:28:32.328Z,27.09
2023-04-22T16:31:00.499Z,27.00
2023-04-22T16:33:28.239Z,26.92
2023-04-22T16:35:56.234Z,26.86
2023-04-22T16:38:24.239Z,26.77
2023-04-22T16:40:54.250Z,26.69
2023-04-22T16:43:22.158Z,26.60
2023-04-22T16:45:49.921Z,26.47
2023-04-22T16:48:17.613Z,26.36
2023-04-22T16:50:45.320Z,26.20
2023-04-22T16:53:12.969Z,26.03
2023-04-22T16:55:41.541Z,25.84
2023-04-22T16:58:09.236Z,25.68
2023-04-22T17:00:37.412Z,25.52
2023-04-22T17:03:06.207Z,25.37
2023-04-22T17:05:33.860Z,25.22
2023-04-22T17:08:01.491Z,25.06
2023-04-22T17:10:29.086Z,24.87
2023-04-22T17:12:56.765Z,24.68
2023-04-22T17:15:24.426Z,24.46
2023-04-22T17:17:52.199Z,24.24
2023-04-22T17:20:19.931Z,24.03
2023-04-22T17:22:47.687Z,23.81
2023-04-22T17:25:15.286Z,23.58
2023-04-22T17:27:42.893Z,23.36
2023-04-22T17:30:11.167Z,23.13
2023-04-22T17:32:38.793Z,22.90
2023-04-22T17:35:07.002Z,22.67
2023-04-22T17:37:34.850Z,22.43
2023-04-22T17:40:03.473Z,22.16
2023-04-22T17:42:44.835Z,21.88
2023-04-22T17:45:13.729Z,21.58
2023-04-22T17:47:41.480Z,21.30
2023-04-22T17:50:09.340Z,21.05
2023-04-22T17:52:37.012Z,20.79
2023-04-22T17:55:05.421Z,20.56
2023-04-22T17:57:33.049Z,20.32
2023-04-22T18:00:00.792Z,20.10
2023-04-22T18:02:28.683Z,19.90
2023-04-22T18:04:56.532Z,19.72
2023-04-22T18:07:24.142Z,19.52
2023-04-22T18:09:51.728Z,19.32
2023-04-22T18:12:20.983Z,19.14
2023-04-22T18:14:48.573Z,18.95
2023-04-22T18:17:20.025Z,18.78
2023-04-22T18:19:51.135Z,18.63
2023-04-22T18:22:18.951Z,18.49
2023-04-22T18:24:46.752Z,18.34
2023-04-22T18:27:14.372Z,18.23
2023-04-22T18:29:42.389Z,18.10
2023-04-22T18:32:10.909Z,17.98
2023-04-22T18:34:39.707Z,17.86
2023-04-22T18:37:07.425Z,17.71
2023-04-22T18:39:35.328Z,17.61
2023-04-22T18:42:03.365Z,17.50
2023-04-22T18:44:31.128Z,17.39
2023-04-22T18:46:58.782Z,17.27
2023-04-22T18:49:26.577Z,17.18
2023-04-22T18:51:54.202Z,17.09
2023-04-22T18:54:21.777Z,16.99
2023-04-22T18:56:49.384Z,16.89
2023-04-22T18:59:17.028Z,16.78
2023-04-22T19:01:44.728Z,16.68
2023-04-22T19:04:12.455Z,16.58
2023-04-22T19:06:40.367Z,16.47
2023-04-22T19:09:08.085Z,16.37
2023-04-22T19:11:35.758Z,16.28
2023-04-22T19:14:03.549Z,16.19
2023-04-22T19:16:31.553Z,16.10
2023-04-22T19:18:59.205Z,16.00
2023-04-22T19:21:27.290Z,15.92
2023-04-22T19:23:54.982Z,15.83
2023-04-22T19:26:22.665Z,15.73
2023-04-22T19:28:50.396Z,15.63
2023-04-22T19:31:18.509Z,15.55
2023-04-22T19:33:46.354Z,15.45
2023-04-22T19:36:14.020Z,15.36
2023-04-22T19:38:41.687Z,15.27
2023-04-22T19:41:11.453Z,15.18
2023-04-22T19:43:40.459Z,15.08
2023-04-22T19:46:08.081Z,14.99
2023-04-22T19:48:36.177Z,14.90
2023-04-22T19:51:05.270Z,14.80
2023-04-22T19:53:32.948Z,14.69
2023-04-22T19:56:00.885Z,14.60
2023-04-22T19:58:28.732Z,14.49
2023-04-22T20:00:57.368Z,14.38
2023-04-22T20:03:25.639Z,14.28
2023-04-22T20:05:53.326Z,14.17
2023-04-22T20:08:21.285Z,14.07
2023-04-22T20:10:49.748Z,13.97
2023-04-22T20:13:17.838Z,13.88
2023-04-22T20:15:45.719Z,13.80
2023-04-22T20:18:13.471Z,13.70
2023-04-22T20:20:41.353Z,13.62
2023-04-22T20:23:10.692Z,13.53
2023-04-22T20:25:39.737Z,13.44
2023-04-22T20:28:07.906Z,13.34
2023-04-22T20:30:36.305Z,13.24
2023-04-22T20:33:04.239Z,13.13
2023-04-22T20:35:32.170Z,13.03
2023-04-22T20:38:00.290Z,12.95
2023-04-22T20:40:28.915Z,12.85
2023-04-22T20:42:57.447Z,12.75
2023-04-22T20:45:26.049Z,12.65
2023-04-22T20:47:53.742Z,12.55
2023-04-22T20:50:21.678Z,12.45
2023-04-22T20:52:49.724Z,12.36
2023-04-22T20:55:17.359Z,12.27
2023-04-22T20:57:44.959Z,12.19
2023-04-22T21:00:13.359Z,12.11
2023-04-22T21:02:41.394Z,12.03
2023-04-22T21:05:11.290Z,11.96
2023-04-22T21:07:39.893Z,11.88
2023-04-22T21:10:08.578Z,11.80
2023-04-22T21:12:36.814Z,11.73
2023-04-22T21:15:05.263Z,11.67
2023-04-22T21:17:32.969Z,11.61
2023-04-22T21:20:00.803Z,11.54
2023-04-22T21:22:28.474Z,11.49
2023-04-22T21:24:56.110Z,11.43
2023-04-22T21:27:23.981Z,11.38
2023-04-22T21:29:51.830Z,11.34
2023-04-22T21:32:20.535Z,11.29
2023-04-22T21:34:48.328Z,11.24
2023-04-22T21:37:15.941Z,11.19
2023-04-22T21:39:43.590Z,11.15
2023-04-22T21:42:11.267Z,11.11
2023-04-22T21:44:39.154Z,11.07
2023-04-22T21:47:06.986Z,11.03
2023-04-22T21:49:34.739Z,11.00
2023-04-22T21:52:02.571Z,10.97
2023-04-22T21:54:30.668Z,10.94
2023-04-22T21:56:58.254Z,10.91
2023-04-22T21:59:25.995Z,10.88
2023-04-22T22:01:53.759Z,10.85
2023-04-22T22:04:21.517Z,10.84
2023-04-22T22:06:49.274Z,10.82
2023-04-22T22:09:16.879Z,10.80
2023-04-22T22:11:44.591Z,10.79
2023-04-22T22:14:12.220Z,10.77
2023-04-22T22:16:40.333Z,10.75
2023-04-22T22:19:11.071Z,10.73
2023-04-22T22:21:38.962Z,10.70
2023-04-22T22:24:09.382Z,10.68
2023-04-22T22:26:40.556Z,10.64
2023-04-22T22:29:15.131Z,10.61
2023-04-22T22:31:46.456Z,10.57
2023-04-22T22:34:14.120Z,10.53
2023-04-22T22:36:41.762Z,10.50
2023-04-22T22:39:12.011Z,10.46
2023-04-22T22:41:41.654Z,10.42
2023-04-22T22:44:10.822Z,10.38
2023-04-22T22:46:40.402Z,10.33
2023-04-22T22:49:08.315Z,10.29
2023-04-22T22:51:37.591Z,10.24
2023-04-22T22:54:05.569Z,10.19
2023-04-22T22:56:33.373Z,10.14
2023-04-22T22:59:01.171Z,10.11
2023-04-22T23:01:28.844Z,10.06
2023-04-22T23:03:56.771Z,10.02
2023-04-22T23:06:24.582Z,9.97
2023-04-22T23:08:52.196Z,9.93
2023-04-22T23:11:19.809Z,9.87
2023-04-22T23:13:47.910Z,9.84
2023-04-22T23:16:15.789Z,9.79
2023-04-22T23:18:43.517Z,9.75
2023-04-22T23:21:11.760Z,9.71
2023-04-22T23:23:39.462Z,9.68
2023-04-22T23:26:07.428Z,9.63
2023-04-22T23:28:35.588Z,9.60
2023-04-22T23:31:03.649Z,9.56
2023-04-22T23:33:31.424Z,9.52
2023-04-22T23:35:59.067Z,9.48
2023-04-22T23:38:27.497Z,9.43
2023-04-22T23:40:55.198Z,9.40
2023-04-22T23:43:22.835Z,9.36
2023-04-22T23:45:50.454Z,9.33
2023-04-22T23:48:18.134Z,9.30
2023-04-22T23:50:45.855Z,9.26
2023-04-22T23:53:13.476Z,9.23
2023-04-22T23:55:41.433Z,9.19
2023-04-22T23:58:09.222Z,9.15
